createdAt,value
2019-05-29T00:05:48.020Z,17.70
2019-05-29T00:08:18.803Z,17.70
2019-05-29T00:10:49.509Z,17.80
2019-05-29T00:13:20.345Z,17.70
2019-05-29T00:15:51.119Z,17.70
2019-05-29T00:18:21.828Z,17.70
2019-05-29T00:20:52.670Z,17.80
2019-05-29T00:23:26.595Z,17.80
2019-05-29T00:25:57.263Z,17.80
2019-05-29T00:28:28.071Z,17.80
2019-05-29T00:30:58.843Z,17.80
2019-05-29T00:33:29.628Z,17.80
2019-05-29T00:36:00.493Z,17.80
2019-05-29T00:38:30.937Z,17.80
2019-05-29T00:41:01.332Z,17.90
2019-05-29T00:43:32.356Z,17.90
2019-05-29T00:46:02.803Z,17.90
2019-05-29T00:48:33.363Z,17.90
2019-05-29T00:51:03.851Z,17.90
2019-05-29T00:53:34.445Z,17.90
2019-05-29T00:56:04.937Z,17.90
2019-05-29T00:58:35.686Z,17.90
2019-05-29T01:01:06.428Z,17.90
2019-05-29T01:03:37.258Z,17.90
2019-05-29T01:06:08.036Z,17.90
2019-05-29T01:08:38.436Z,17.90
2019-05-29T01:11:09.004Z,17.90
2019-05-29T01:13:39.386Z,17.90
2019-05-29T01:16:11.233Z,17.90
2019-05-29T01:18:41.937Z,17.90
2019-05-29T01:21:12.510Z,17.90
2019-05-29T01:23:43.164Z,17.90
2019-05-29T01:26:14.526Z,17.90
2019-05-29T01:28:45.035Z,17.90
2019-05-29T01:31:15.517Z,18.00
2019-05-29T01:33:45.992Z,17.90
2019-05-29T01:36:16.329Z,17.90
2019-05-29T01:38:46.856Z,17.90
2019-05-29T01:41:17.388Z,17.90
2019-05-29T01:43:47.991Z,17.80
2019-05-29T01:46:19.418Z,17.80
2019-05-29T01:48:50.014Z,17.70
2019-05-29T01:51:21.743Z,17.70
2019-05-29T01:53:52.325Z,17.70
2019-05-29T01:56:23.858Z,17.60
2019-05-29T01:58:54.454Z,17.50
2019-05-29T02:01:24.867Z,17.50
2019-05-29T02:03:55.035Z,17.40
2019-05-29T02:06:25.558Z,17.40
2019-05-29T02:08:55.937Z,17.40
2019-05-29T02:11:27.542Z,17.30
2019-05-29T02:13:59.160Z,17.30
2019-05-29T02:16:29.607Z,17.20
2019-05-29T02:18:59.755Z,17.20
2019-05-29T02:21:31.433Z,17.20
2019-05-29T02:24:02.006Z,17.20
2019-05-29T02:26:32.430Z,17.20
2019-05-29T02:29:03.575Z,17.10
2019-05-29T02:31:33.944Z,17.10
2019-05-29T02:34:07.347Z,17.10
2019-05-29T02:36:36.782Z,17.10
2019-05-29T02:39:08.451Z,17.10
2019-05-29T02:41:40.377Z,17.10
2019-05-29T02:44:10.879Z,17.10
2019-05-29T02:46:41.204Z,17.10
2019-05-29T02:49:12.687Z,17.10
2019-05-29T02:51:43.197Z,17.10
2019-05-29T02:54:13.739Z,17.00
2019-05-29T02:56:44.309Z,17.00
2019-05-29T02:59:14.857Z,17.00
2019-05-29T03:01:45.479Z,17.00
2019-05-29T03:04:15.889Z,17.00
2019-05-29T03:06:46.187Z,17.00
2019-05-29T03:09:16.702Z,17.00
2019-05-29T03:11:47.051Z,17.00
2019-05-29T03:14:17.408Z,16.90
2019-05-29T03:16:47.778Z,16.90
2019-05-29T03:19:18.333Z,16.90
2019-05-29T03:21:48.825Z,16.90
2019-05-29T03:24:19.253Z,16.90
2019-05-29T03:26:49.660Z,16.90
2019-05-29T03:29:20.714Z,16.80
2019-05-29T03:31:51.533Z,16.80
2019-05-29T03:34:22.418Z,16.80
2019-05-29T03:36:53.205Z,16.80
2019-05-29T03:39:26.199Z,16.70
2019-05-29T03:41:56.626Z,16.70
2019-05-29T03:44:28.687Z,16.70
2019-05-29T03:47:00.397Z,16.60
2019-05-29T03:49:31.174Z,16.50
2019-05-29T03:52:02.351Z,16.50
2019-05-29T03:54:34.984Z,16.40
2019-05-29T03:57:07.173Z,16.40
2019-05-29T03:59:38.916Z,16.30
2019-05-29T04:02:09.989Z,16.20
2019-05-29T04:04:40.826Z,16.20
2019-05-29T04:07:11.805Z,16.10
2019-05-29T04:09:42.600Z,16.00
2019-05-29T04:12:13.878Z,16.00
2019-05-29T04:14:44.772Z,15.90
2019-05-29T04:17:15.621Z,15.90
2019-05-29T04:19:47.029Z,15.90
2019-05-29T04:22:20.731Z,15.80
2019-05-29T04:24:54.285Z,15.80
2019-05-29T04:27:28.102Z,15.70
2019-05-29T04:30:01.331Z,15.60
2019-05-29T04:32:32.316Z,15.60
2019-05-29T04:35:03.446Z,15.50
2019-05-29T04:37:34.398Z,15.60
2019-05-29T04:40:06.028Z,15.60
2019-05-29T04:42:38.091Z,15.60
2019-05-29T04:45:10.216Z,15.60
2019-05-29T04:47:40.952Z,15.70
2019-05-29T04:50:12.116Z,15.80
2019-05-29T04:52:43.105Z,15.80
2019-05-29T04:55:14.413Z,15.80
2019-05-29T04:57:44.867Z,15.90
2019-05-29T05:00:15.938Z,15.90
2019-05-29T05:02:46.464Z,16.00
2019-05-29T05:05:19.504Z,16.00
2019-05-29T05:07:49.502Z,16.10
2019-05-29T05:10:35.841Z,16.10
2019-05-29T05:13:07.426Z,16.00
2019-05-29T05:15:41.952Z,16.00
2019-05-29T05:18:12.659Z,16.00
2019-05-29T05:20:43.325Z,16.00
2019-05-29T05:23:13.935Z,16.00
2019-05-29T05:25:44.514Z,16.00
2019-05-29T05:28:15.229Z,16.10
2019-05-29T05:30:45.969Z,16.10
2019-05-29T05:33:16.625Z,16.10
2019-05-29T05:35:47.271Z,16.20
2019-05-29T05:38:17.838Z,16.30
2019-05-29T05:40:48.361Z,16.40
2019-05-29T05:43:24.197Z,16.60
2019-05-29T05:45:51.737Z,16.70
2019-05-29T05:48:22.265Z,16.90
2019-05-29T05:50:52.844Z,17.00
2019-05-29T05:53:23.524Z,17.10
2019-05-29T05:55:55.012Z,17.20
2019-05-29T05:58:25.599Z,17.30
2019-05-29T06:00:56.240Z,17.30
2019-05-29T06:03:26.824Z,17.40
2019-05-29T06:05:57.375Z,17.40
2019-05-29T06:08:28.223Z,17.50
2019-05-29T06:10:59.938Z,17.50
2019-05-29T06:13:30.562Z,17.50
2019-05-29T06:16:01.122Z,17.50
2019-05-29T06:18:32.401Z,17.60
2019-05-29T06:21:03.070Z,17.60
2019-05-29T06:23:34.695Z,17.70
2019-05-29T06:26:05.415Z,17.70
2019-05-29T06:28:37.103Z,17.80
2019-05-29T06:31:07.919Z,17.90
2019-05-29T06:33:39.484Z,17.90
2019-05-29T06:36:10.222Z,17.90
2019-05-29T06:38:42.129Z,18.00
2019-05-29T06:41:12.902Z,18.10
2019-05-29T06:43:44.373Z,18.20
2019-05-29T06:46:15.309Z,18.30
2019-05-29T06:48:58.668Z,18.40
2019-05-29T06:51:18.319Z,18.50
2019-05-29T06:53:48.818Z,18.50
2019-05-29T06:56:19.554Z,18.60
2019-05-29T06:58:50.350Z,18.50
2019-05-29T07:01:21.041Z,18.50
2019-05-29T07:04:07.891Z,18.50
2019-05-29T07:06:24.751Z,18.50
2019-05-29T07:08:55.509Z,18.40
2019-05-29T07:11:26.738Z,18.40
2019-05-29T07:13:57.242Z,18.30
2019-05-29T07:16:43.248Z,18.30
2019-05-29T07:21:31.966Z,18.50
2019-05-29T07:24:02.606Z,18.70
2019-05-29T07:26:33.628Z,18.70
2019-05-29T07:29:08.485Z,18.80
2019-05-29T07:31:36.903Z,18.90
2019-05-29T07:34:07.357Z,18.90
2019-05-29T07:36:41.996Z,18.90
2019-05-29T07:39:13.042Z,18.90
2019-05-29T07:41:44.295Z,18.90
2019-05-29T07:44:14.608Z,19.00
2019-05-29T07:46:45.653Z,19.10
2019-05-29T07:49:17.089Z,19.20
2019-05-29T07:51:48.643Z,19.10
2019-05-29T07:54:19.189Z,19.10
2019-05-29T07:56:49.356Z,19.00
2019-05-29T07:59:19.675Z,19.10
2019-05-29T08:01:49.973Z,19.20
2019-05-29T08:04:20.686Z,19.10
2019-05-29T08:06:54.551Z,19.10
2019-05-29T08:09:24.215Z,19.10
2019-05-29T08:11:54.624Z,19.10
2019-05-29T08:14:25.351Z,19.10
2019-05-29T08:16:55.527Z,19.10
2019-05-29T08:19:25.851Z,19.00
2019-05-29T08:21:58.678Z,19.00
2019-05-29T08:24:29.174Z,19.10
2019-05-29T08:27:00.791Z,19.20
2019-05-29T08:29:31.128Z,19.30
2019-05-29T08:32:01.707Z,19.20
2019-05-29T08:34:32.401Z,19.20
2019-05-29T08:37:07.130Z,19.20
2019-05-29T08:39:37.319Z,19.30
2019-05-29T08:42:22.696Z,19.30
2019-05-29T08:44:41.293Z,19.40
2019-05-29T08:47:11.928Z,19.40
2019-05-29T08:49:43.594Z,19.40
2019-05-29T08:52:14.982Z,19.50
2019-05-29T08:54:45.998Z,19.60
2019-05-29T08:57:16.696Z,19.60
2019-05-29T08:59:48.451Z,19.70
2019-05-29T09:02:19.552Z,19.90
2019-05-29T09:04:52.982Z,20.00
2019-05-29T09:07:22.324Z,20.20
2019-05-29T09:09:53.271Z,20.20
2019-05-29T09:12:23.668Z,20.30
2019-05-29T09:14:54.581Z,20.50
2019-05-29T09:17:24.955Z,20.70
2019-05-29T09:19:55.233Z,21.00
2019-05-29T09:22:25.664Z,21.30
2019-05-29T09:24:56.168Z,21.50
2019-05-29T09:27:26.852Z,21.80
2019-05-29T09:29:57.738Z,21.80
2019-05-29T09:32:48.627Z,22.00
2019-05-29T09:35:01.113Z,22.00
2019-05-29T09:37:31.516Z,22.10
2019-05-29T09:40:01.875Z,22.20
2019-05-29T09:42:32.357Z,22.40
2019-05-29T09:45:02.567Z,22.60
2019-05-29T09:47:33.219Z,22.80
2019-05-29T09:50:03.695Z,22.90
2019-05-29T09:52:39.807Z,22.70
2019-05-29T09:55:10.823Z,22.40
2019-05-29T09:57:41.490Z,22.20
2019-05-29T10:00:12.324Z,21.90
2019-05-29T10:02:42.799Z,22.00
2019-05-29T10:05:14.142Z,22.00
2019-05-29T10:07:44.812Z,22.10
2019-05-29T10:10:17.046Z,22.00
2019-05-29T10:12:47.382Z,22.00
2019-05-29T10:15:19.584Z,21.80
2019-05-29T10:17:49.716Z,21.80
2019-05-29T10:20:22.255Z,21.90
2019-05-29T10:22:52.553Z,22.00
2019-05-29T10:25:23.140Z,22.00
2019-05-29T10:27:53.598Z,21.90
2019-05-29T10:30:25.133Z,21.80
2019-05-29T10:32:55.647Z,21.80
2019-05-29T10:35:26.351Z,21.90
2019-05-29T10:37:56.750Z,22.10
2019-05-29T10:40:27.995Z,22.00
2019-05-29T10:42:58.303Z,22.10
2019-05-29T10:45:28.750Z,22.20
2019-05-29T10:47:59.562Z,22.30
2019-05-29T10:50:29.838Z,22.30
2019-05-29T10:53:00.717Z,22.20
2019-05-29T10:55:31.120Z,22.00
2019-05-29T10:58:01.599Z,22.10
2019-05-29T11:00:31.836Z,22.00
2019-05-29T11:03:02.199Z,22.20
2019-05-29T11:05:32.725Z,22.00
2019-05-29T11:08:03.224Z,21.90
2019-05-29T11:10:33.794Z,22.10
2019-05-29T11:13:07.184Z,22.10
2019-05-29T11:15:48.894Z,22.10
2019-05-29T11:18:19.348Z,22.30
2019-05-29T11:20:49.756Z,22.30
2019-05-29T11:23:21.354Z,22.10
2019-05-29T11:25:52.062Z,22.10
2019-05-29T11:28:23.200Z,22.20
2019-05-29T11:30:54.124Z,22.30
2019-05-29T11:33:26.642Z,22.50
2019-05-29T11:36:07.334Z,22.50
2019-05-29T11:38:29.364Z,22.50
2019-05-29T11:41:24.726Z,22.50
2019-05-29T11:43:32.012Z,22.30
2019-05-29T11:46:02.787Z,22.30
2019-05-29T11:48:33.250Z,22.40
2019-05-29T11:51:03.814Z,22.50
2019-05-29T11:53:33.969Z,22.50
2019-05-29T11:56:04.614Z,22.50
2019-05-29T11:58:35.057Z,22.60
2019-05-29T12:01:05.564Z,22.40
2019-05-29T12:03:35.982Z,22.40
2019-05-29T12:06:06.655Z,22.30
2019-05-29T12:08:37.042Z,22.30
2019-05-29T12:11:07.399Z,22.40
2019-05-29T12:13:37.978Z,22.40
2019-05-29T12:16:09.710Z,22.50
2019-05-29T12:18:40.262Z,22.50
2019-05-29T12:21:10.682Z,22.50
2019-05-29T12:23:41.124Z,22.30
2019-05-29T12:26:21.469Z,22.30
2019-05-29T12:28:43.374Z,22.30
2019-05-29T12:31:13.808Z,22.00
2019-05-29T12:33:44.162Z,22.10
2019-05-29T12:36:14.628Z,22.20
2019-05-29T12:38:53.383Z,22.20
2019-05-29T12:41:25.141Z,22.30
2019-05-29T12:43:59.415Z,22.30
2019-05-29T12:46:30.181Z,22.20
2019-05-29T12:49:01.710Z,22.20
2019-05-29T12:51:32.699Z,22.10
2019-05-29T12:54:05.188Z,21.80
2019-05-29T12:56:35.263Z,21.90
2019-05-29T12:59:06.468Z,21.80
2019-05-29T13:01:36.978Z,21.80
2019-05-29T13:04:07.523Z,21.80
2019-05-29T13:06:38.697Z,22.00
2019-05-29T13:09:09.871Z,22.10
2019-05-29T13:11:40.271Z,22.20
2019-05-29T13:14:10.778Z,22.30
2019-05-29T13:16:41.318Z,22.10
2019-05-29T13:19:11.792Z,22.00
2019-05-29T13:21:42.657Z,21.90
2019-05-29T13:24:13.113Z,21.70
2019-05-29T13:26:43.239Z,21.60
2019-05-29T13:29:13.987Z,21.60
2019-05-29T13:31:44.303Z,21.70
2019-05-29T13:34:14.729Z,21.90
2019-05-29T13:36:45.269Z,22.00
2019-05-29T13:39:15.925Z,22.10
2019-05-29T13:41:46.539Z,22.00
2019-05-29T13:44:17.604Z,21.90
2019-05-29T13:46:48.672Z,21.80
2019-05-29T13:49:19.706Z,21.70
2019-05-29T13:51:51.728Z,21.70
2019-05-29T13:54:22.218Z,21.60
2019-05-29T13:56:53.017Z,21.70
2019-05-29T13:59:23.496Z,21.50
2019-05-29T14:01:53.971Z,21.40
2019-05-29T14:04:24.898Z,21.60
2019-05-29T14:06:55.571Z,21.60
2019-05-29T14:09:26.120Z,21.80
2019-05-29T14:11:57.041Z,22.00
2019-05-29T14:14:27.477Z,22.10
2019-05-29T14:16:57.834Z,21.90
2019-05-29T14:19:28.116Z,21.80
2019-05-29T14:22:01.119Z,21.80
2019-05-29T14:24:31.505Z,21.70
2019-05-29T14:27:03.302Z,21.50
2019-05-29T14:29:33.939Z,21.30
2019-05-29T14:32:05.073Z,21.30
2019-05-29T14:34:35.606Z,21.30
2019-05-29T14:37:07.511Z,21.30
2019-05-29T14:39:38.727Z,21.40
2019-05-29T14:42:10.102Z,21.40
2019-05-29T14:44:41.486Z,21.40
2019-05-29T14:47:13.450Z,21.50
2019-05-29T14:49:44.123Z,21.60
2019-05-29T14:52:14.966Z,21.60
2019-05-29T14:54:45.566Z,21.70
2019-05-29T14:57:24.791Z,21.80
2019-05-29T14:59:48.430Z,21.90
2019-05-29T15:02:23.946Z,21.80
2019-05-29T15:04:52.597Z,21.80
2019-05-29T15:07:23.519Z,21.90
2019-05-29T15:09:54.106Z,22.00
2019-05-29T15:12:25.062Z,22.00
2019-05-29T15:14:55.855Z,21.90
2019-05-29T15:17:26.497Z,21.90
2019-05-29T15:19:57.354Z,21.90
2019-05-29T15:22:28.233Z,22.00
2019-05-29T15:25:07.984Z,22.00
2019-05-29T15:27:31.318Z,22.00
2019-05-29T15:30:01.602Z,22.00
2019-05-29T15:32:32.072Z,21.90
2019-05-29T15:35:02.478Z,22.00
2019-05-29T15:37:32.960Z,22.00
2019-05-29T15:40:03.347Z,22.10
2019-05-29T15:42:33.835Z,22.20
2019-05-29T15:45:23.239Z,22.20
2019-05-29T15:47:53.746Z,22.20
2019-05-29T15:50:24.837Z,22.20
2019-05-29T15:52:55.109Z,22.20
2019-05-29T15:55:33.990Z,22.30
2019-05-29T15:57:57.727Z,22.50
2019-05-29T16:00:28.440Z,22.50
2019-05-29T16:02:58.984Z,22.50
2019-05-29T16:05:29.980Z,22.50
2019-05-29T16:08:00.575Z,22.30
2019-05-29T16:10:39.576Z,22.10
2019-05-29T16:13:10.991Z,22.00
2019-05-29T16:15:41.748Z,21.90
2019-05-29T16:18:23.017Z,21.80
2019-05-29T16:20:44.200Z,21.90
2019-05-29T16:23:31.037Z,21.90
2019-05-29T16:25:46.948Z,22.00
2019-05-29T16:28:17.361Z,22.10
2019-05-29T16:30:47.882Z,22.10
2019-05-29T16:33:19.489Z,22.10
2019-05-29T16:35:49.973Z,22.20
2019-05-29T16:38:20.208Z,22.20
2019-05-29T16:40:50.775Z,22.30
2019-05-29T16:43:22.354Z,22.30
2019-05-29T16:45:53.062Z,22.30
2019-05-29T16:48:23.431Z,22.10
2019-05-29T16:50:54.137Z,22.00
2019-05-29T16:53:24.669Z,21.90
2019-05-29T16:55:54.996Z,21.70
2019-05-29T16:58:26.164Z,21.50
2019-05-29T17:00:56.630Z,21.40
2019-05-29T17:03:26.944Z,21.20
2019-05-29T17:05:57.377Z,21.10
2019-05-29T17:08:28.305Z,20.90
2019-05-29T17:10:58.764Z,20.90
2019-05-29T17:13:29.390Z,20.80
2019-05-29T17:15:59.696Z,20.70
2019-05-29T17:18:30.024Z,20.70
2019-05-29T17:21:01.075Z,20.50
2019-05-29T17:23:31.325Z,20.50
2019-05-29T17:26:10.606Z,20.40
2019-05-29T17:28:34.144Z,20.30
2019-05-29T17:31:04.561Z,20.30
2019-05-29T17:33:35.196Z,20.20
2019-05-29T17:36:05.796Z,20.10
2019-05-29T17:38:35.930Z,20.10
2019-05-29T17:41:06.262Z,20.10
2019-05-29T17:43:36.529Z,20.00
2019-05-29T17:46:06.818Z,19.90
2019-05-29T17:48:37.247Z,19.90
2019-05-29T17:51:07.688Z,19.90
2019-05-29T17:53:39.432Z,19.80
2019-05-29T17:56:25.055Z,19.70
2019-05-29T17:58:42.916Z,19.70
2019-05-29T18:01:13.638Z,19.60
2019-05-29T18:03:44.943Z,19.50
2019-05-29T18:06:16.272Z,19.40
2019-05-29T18:08:46.711Z,19.40
2019-05-29T18:11:18.787Z,19.30
2019-05-29T18:13:49.543Z,19.30
2019-05-29T18:16:21.564Z,19.20
2019-05-29T18:18:52.037Z,19.20
2019-05-29T18:21:23.602Z,19.20
2019-05-29T18:23:55.168Z,19.20
2019-05-29T18:26:42.590Z,19.20
2019-05-29T18:28:59.611Z,19.20
2019-05-29T18:31:30.385Z,19.20
2019-05-29T18:34:00.915Z,19.20
2019-05-29T18:36:31.851Z,19.20
2019-05-29T18:39:02.360Z,19.10
2019-05-29T18:41:32.987Z,19.10
2019-05-29T18:44:03.316Z,19.10
2019-05-29T18:46:38.103Z,19.10
2019-05-29T18:49:08.004Z,19.10
2019-05-29T18:51:39.232Z,19.00
2019-05-29T18:54:10.125Z,19.00
2019-05-29T18:56:40.819Z,19.00
2019-05-29T18:59:11.826Z,19.00
2019-05-29T19:01:42.309Z,18.90
2019-05-29T19:04:12.765Z,18.90
2019-05-29T19:06:43.311Z,18.90
2019-05-29T19:09:14.230Z,18.80
2019-05-29T19:11:44.650Z,18.80
2019-05-29T19:14:15.461Z,18.80
2019-05-29T19:16:45.809Z,18.70
2019-05-29T19:19:17.237Z,18.70
2019-05-29T19:21:47.612Z,18.70
2019-05-29T19:24:17.930Z,18.60
2019-05-29T19:26:48.611Z,18.60
2019-05-29T19:29:19.116Z,18.60
2019-05-29T19:31:50.651Z,18.60
2019-05-29T19:34:21.459Z,18.50
2019-05-29T19:36:52.225Z,18.50
2019-05-29T19:39:23.722Z,18.40
2019-05-29T19:41:54.302Z,18.40
2019-05-29T19:44:26.265Z,18.40
2019-05-29T19:46:56.790Z,18.30
2019-05-29T19:49:27.373Z,18.30
2019-05-29T19:51:57.749Z,18.30
2019-05-29T19:54:29.429Z,18.20
2019-05-29T19:57:00.071Z,18.20
2019-05-29T19:59:30.387Z,18.10
2019-05-29T20:02:00.945Z,18.10
2019-05-29T20:04:32.579Z,18.10
2019-05-29T20:07:03.251Z,18.00
2019-05-29T20:09:33.716Z,18.00
2019-05-29T20:12:04.275Z,18.00
2019-05-29T20:14:35.801Z,17.90
2019-05-29T20:17:07.408Z,17.90
2019-05-29T20:19:40.479Z,17.80
2019-05-29T20:22:10.429Z,17.80
2019-05-29T20:24:40.695Z,17.70
2019-05-29T20:27:10.988Z,17.80
2019-05-29T20:29:42.634Z,17.70
2019-05-29T20:32:13.346Z,17.70
2019-05-29T20:34:43.765Z,17.70
2019-05-29T20:37:14.254Z,17.70
2019-05-29T20:39:44.594Z,17.60
2019-05-29T20:42:14.889Z,17.60
2019-05-29T20:44:45.238Z,17.60
2019-05-29T20:47:15.679Z,17.60
2019-05-29T20:49:47.564Z,17.50
2019-05-29T20:52:19.301Z,17.50
2019-05-29T20:54:49.914Z,17.50
2019-05-29T20:57:20.755Z,17.50
2019-05-29T20:59:51.425Z,17.50
2019-05-29T21:02:22.967Z,17.50
2019-05-29T21:04:53.392Z,17.50
2019-05-29T21:07:23.769Z,17.50
2019-05-29T21:09:54.303Z,17.50
2019-05-29T21:12:25.651Z,17.40
2019-05-29T21:14:57.113Z,17.40
2019-05-29T21:17:28.011Z,17.40
2019-05-29T21:19:58.698Z,17.40
2019-05-29T21:22:29.125Z,17.40
2019-05-29T21:25:06.597Z,17.30
2019-05-29T21:27:32.096Z,17.30
2019-05-29T21:30:04.123Z,17.30
2019-05-29T21:32:35.713Z,17.30
2019-05-29T21:35:07.586Z,17.30
2019-05-29T21:37:38.254Z,17.30
2019-05-29T21:40:11.171Z,17.30
2019-05-29T21:42:42.865Z,17.30
2019-05-29T21:45:13.459Z,17.30
2019-05-29T21:47:45.066Z,17.30
2019-05-29T21:50:17.741Z,17.40
2019-05-29T21:52:48.393Z,17.30
2019-05-29T21:55:18.884Z,17.40
2019-05-29T21:57:50.306Z,17.40
2019-05-29T22:00:33.453Z,17.40
2019-05-29T22:03:04.097Z,17.40
2019-05-29T22:05:35.039Z,17.40
2019-05-29T22:08:06.869Z,17.40
2019-05-29T22:10:37.368Z,17.30
2019-05-29T22:13:08.008Z,17.30
2019-05-29T22:15:38.413Z,17.20
2019-05-29T22:18:08.820Z,17.20
2019-05-29T22:20:39.388Z,17.10
2019-05-29T22:23:09.990Z,17.10
2019-05-29T22:25:40.502Z,17.10
2019-05-29T22:28:10.917Z,17.10
2019-05-29T22:30:41.453Z,17.20
2019-05-29T22:33:12.074Z,17.20
2019-05-29T22:35:42.565Z,17.10
2019-05-29T22:38:13.164Z,17.10
2019-05-29T22:40:43.569Z,17.10
2019-05-29T22:43:15.048Z,17.10
2019-05-29T22:45:45.354Z,17.00
2019-05-29T22:48:16.165Z,17.00
2019-05-29T22:50:46.698Z,17.00
2019-05-29T22:53:17.015Z,17.10
2019-05-29T22:55:47.558Z,17.00
2019-05-29T22:58:17.933Z,17.00
2019-05-29T23:00:48.457Z,17.00
2019-05-29T23:03:18.802Z,17.00
2019-05-29T23:05:49.248Z,17.00
2019-05-29T23:08:19.744Z,17.00
2019-05-29T23:10:50.081Z,17.00
2019-05-29T23:13:20.275Z,17.00
2019-05-29T23:15:50.778Z,17.00
2019-05-29T23:18:21.277Z,17.00
2019-05-29T23:20:52.405Z,17.00
2019-05-29T23:23:22.801Z,17.00
2019-05-29T23:25:53.156Z,16.90
2019-05-29T23:28:24.390Z,16.90
2019-05-29T23:30:54.731Z,16.90
2019-05-29T23:33:24.885Z,16.90
2019-05-29T23:35:56.908Z,16.80
2019-05-29T23:38:27.576Z,16.80
2019-05-29T23:40:59.384Z,16.70
2019-05-29T23:43:29.920Z,16.70
2019-05-29T23:46:02.255Z,16.60
2019-05-29T23:48:32.405Z,16.60
2019-05-29T23:51:03.740Z,16.50
2019-05-29T23:53:34.737Z,16.40
2019-05-29T23:56:05.114Z,16.50
2019-05-29T23:58:35.747Z,16.40
